sensor_id;sensor_type;location;lat;lon;timestamp;temperature;humidity
34815;DHT22;21030;53.912;15.214;2024-02-26T00:00:40;31.50;23.10
34815;DHT22;21030;53.912;15.214;2024-02-26T00:03:07;31.20;23.40
34815;DHT22;21030;53.912;15.214;2024-02-26T00:05:34;31.00;23.60
34815;DHT22;21030;53.912;15.214;2024-02-26T00:08:02;31.50;23.30
34815;DHT22;21030;53.912;15.214;2024-02-26T00:10:31;31.40;23.10
34815;DHT22;21030;53.912;15.214;2024-02-26T00:12:58;32.00;22.90
34815;DHT22;21030;53.912;15.214;2024-02-26T00:15:25;32.30;22.50
34815;DHT22;21030;53.912;15.214;2024-02-26T00:17:54;32.50;22.90
34815;DHT22;21030;53.912;15.214;2024-02-26T00:20:21;32.60;22.20
34815;DHT22;21030;53.912;15.214;2024-02-26T00:22:48;32.70;22.10
34815;DHT22;21030;53.912;15.214;2024-02-26T00:25:15;32.40;22.10
34815;DHT22;21030;53.912;15.214;2024-02-26T00:27:42;32.00;22.70
34815;DHT22;21030;53.912;15.214;2024-02-26T00:30:11;31.50;23.10
34815;DHT22;21030;53.912;15.214;2024-02-26T00:32:38;31.10;23.50
34815;DHT22;21030;53.912;15.214;2024-02-26T00:35:06;30.90;23.50
34815;DHT22;21030;53.912;15.214;2024-02-26T00:37:36;31.50;23.10
34815;DHT22;21030;53.912;15.214;2024-02-26T00:40:03;31.70;22.90
34815;DHT22;21030;53.912;15.214;2024-02-26T00:42:30;31.30;23.00
34815;DHT22;21030;53.912;15.214;2024-02-26T00:44:57;31.10;23.30
34815;DHT22;21030;53.912;15.214;2024-02-26T00:47:24;31.30;23.30
34815;DHT22;21030;53.912;15.214;2024-02-26T00:49:51;31.20;23.20
34815;DHT22;21030;53.912;15.214;2024-02-26T00:52:18;31.00;23.30
34815;DHT22;21030;53.912;15.214;2024-02-26T00:54:45;30.90;23.90
34815;DHT22;21030;53.912;15.214;2024-02-26T00:57:12;30.90;23.60
34815;DHT22;21030;53.912;15.214;2024-02-26T00:59:39;31.00;23.50
34815;DHT22;21030;53.912;15.214;2024-02-26T01:02:06;31.30;23.10
34815;DHT22;21030;53.912;15.214;2024-02-26T01:04:33;31.90;22.80
34815;DHT22;21030;53.912;15.214;2024-02-26T01:07:01;32.10;22.40
34815;DHT22;21030;53.912;15.214;2024-02-26T01:09:28;32.20;22.30
34815;DHT22;21030;53.912;15.214;2024-02-26T01:11:55;32.30;22.30
34815;DHT22;21030;53.912;15.214;2024-02-26T01:14:22;32.30;22.30
34815;DHT22;21030;53.912;15.214;2024-02-26T01:16:49;32.40;22.20
34815;DHT22;21030;53.912;15.214;2024-02-26T01:19:17;32.40;22.10
34815;DHT22;21030;53.912;15.214;2024-02-26T01:21:44;32.40;22.10
34815;DHT22;21030;53.912;15.214;2024-02-26T01:24:10;32.50;22.10
34815;DHT22;21030;53.912;15.214;2024-02-26T01:26:37;32.50;22.10
34815;DHT22;21030;53.912;15.214;2024-02-26T01:29:05;32.60;22.10
34815;DHT22;21030;53.912;15.214;2024-02-26T01:31:32;32.40;22.10
34815;DHT22;21030;53.912;15.214;2024-02-26T01:33:59;32.40;22.10
34815;DHT22;21030;53.912;15.214;2024-02-26T01:36:26;32.40;22.00
34815;DHT22;21030;53.912;15.214;2024-02-26T01:38:53;32.50;21.90
34815;DHT22;21030;53.912;15.214;2024-02-26T01:41:20;32.50;22.00
34815;DHT22;21030;53.912;15.214;2024-02-26T01:43:47;32.40;22.00
34815;DHT22;21030;53.912;15.214;2024-02-26T01:46:14;32.40;22.20
34815;DHT22;21030;53.912;15.214;2024-02-26T01:48:43;32.40;22.20
34815;DHT22;21030;53.912;15.214;2024-02-26T01:51:12;32.40;22.30
34815;DHT22;21030;53.912;15.214;2024-02-26T01:53:41;32.30;22.40
34815;DHT22;21030;53.912;15.214;2024-02-26T01:56:08;32.10;22.40
34815;DHT22;21030;53.912;15.214;2024-02-26T01:58:36;32.00;22.30
34815;DHT22;21030;53.912;15.214;2024-02-26T02:01:03;31.90;22.60
34815;DHT22;21030;53.912;15.214;2024-02-26T02:03:31;31.60;22.90
34815;DHT22;21030;53.912;15.214;2024-02-26T02:05:58;31.30;23.00
34815;DHT22;21030;53.912;15.214;2024-02-26T02:08:25;31.50;22.80
34815;DHT22;21030;53.912;15.214;2024-02-26T02:10:53;31.70;22.70
34815;DHT22;21030;53.912;15.214;2024-02-26T02:13:20;31.70;23.30
34815;DHT22;21030;53.912;15.214;2024-02-26T02:15:47;31.50;23.00
34815;DHT22;21030;53.912;15.214;2024-02-26T02:18:14;31.40;23.10
34815;DHT22;21030;53.912;15.214;2024-02-26T02:20:41;31.10;23.30
34815;DHT22;21030;53.912;15.214;2024-02-26T02:23:08;30.40;23.90
34815;DHT22;21030;53.912;15.214;2024-02-26T02:25:35;30.40;24.10
34815;DHT22;21030;53.912;15.214;2024-02-26T02:28:02;30.30;23.90
34815;DHT22;21030;53.912;15.214;2024-02-26T02:30:31;29.90;24.20
34815;DHT22;21030;53.912;15.214;2024-02-26T02:33:00;29.80;24.50
34815;DHT22;21030;53.912;15.214;2024-02-26T02:35:29;29.60;24.70
34815;DHT22;21030;53.912;15.214;2024-02-26T02:37:59;29.40;25.00
34815;DHT22;21030;53.912;15.214;2024-02-26T02:40:28;28.90;25.30
34815;DHT22;21030;53.912;15.214;2024-02-26T02:42:57;28.70;25.50
34815;DHT22;21030;53.912;15.214;2024-02-26T02:45:27;29.10;25.20
34815;DHT22;21030;53.912;15.214;2024-02-26T02:47:55;29.90;24.50
34815;DHT22;21030;53.912;15.214;2024-02-26T02:50:44;30.60;23.80
34815;DHT22;21030;53.912;15.214;2024-02-26T02:53:13;30.80;23.20
34815;DHT22;21030;53.912;15.214;2024-02-26T02:55:44;31.20;23.10
34815;DHT22;21030;53.912;15.214;2024-02-26T02:58:14;31.30;22.90
34815;DHT22;21030;53.912;15.214;2024-02-26T03:00:42;31.40;22.80
34815;DHT22;21030;53.912;15.214;2024-02-26T03:03:12;31.50;22.60
34815;DHT22;21030;53.912;15.214;2024-02-26T03:05:40;31.60;22.50
34815;DHT22;21030;53.912;15.214;2024-02-26T03:08:09;31.60;22.60
34815;DHT22;21030;53.912;15.214;2024-02-26T03:10:39;31.50;22.40
34815;DHT22;21030;53.912;15.214;2024-02-26T03:13:08;31.60;22.50
34815;DHT22;21030;53.912;15.214;2024-02-26T03:15:37;31.60;22.60
34815;DHT22;21030;53.912;15.214;2024-02-26T03:18:06;31.60;22.40
34815;DHT22;21030;53.912;15.214;2024-02-26T03:20:36;31.70;22.60
34815;DHT22;21030;53.912;15.214;2024-02-26T03:23:05;31.70;22.50
34815;DHT22;21030;53.912;15.214;2024-02-26T03:25:34;31.60;22.70
34815;DHT22;21030;53.912;15.214;2024-02-26T03:28:02;31.50;22.60
34815;DHT22;21030;53.912;15.214;2024-02-26T03:30:30;31.50;22.60
34815;DHT22;21030;53.912;15.214;2024-02-26T03:32:59;31.60;22.60
34815;DHT22;21030;53.912;15.214;2024-02-26T03:35:28;31.50;22.50
34815;DHT22;21030;53.912;15.214;2024-02-26T03:37:57;31.50;22.50
34815;DHT22;21030;53.912;15.214;2024-02-26T03:40:25;31.50;22.50
34815;DHT22;21030;53.912;15.214;2024-02-26T03:42:54;31.60;22.60
34815;DHT22;21030;53.912;15.214;2024-02-26T03:45:25;31.50;22.60
34815;DHT22;21030;53.912;15.214;2024-02-26T03:47:55;31.40;22.70
34815;DHT22;21030;53.912;15.214;2024-02-26T03:50:24;31.40;22.70
34815;DHT22;21030;53.912;15.214;2024-02-26T03:52:53;31.40;22.80
34815;DHT22;21030;53.912;15.214;2024-02-26T03:55:22;31.40;22.70
34815;DHT22;21030;53.912;15.214;2024-02-26T03:57:53;31.50;22.60
34815;DHT22;21030;53.912;15.214;2024-02-26T04:00:22;31.60;22.60
34815;DHT22;21030;53.912;15.214;2024-02-26T04:02:51;31.70;22.50
34815;DHT22;21030;53.912;15.214;2024-02-26T04:05:20;31.60;22.40
34815;DHT22;21030;53.912;15.214;2024-02-26T04:07:48;31.60;22.40
34815;DHT22;21030;53.912;15.214;2024-02-26T04:10:17;31.70;22.30
34815;DHT22;21030;53.912;15.214;2024-02-26T04:12:46;31.70;22.30
34815;DHT22;21030;53.912;15.214;2024-02-26T04:15:15;31.50;22.40
34815;DHT22;21030;53.912;15.214;2024-02-26T04:17:45;31.30;22.50
34815;DHT22;21030;53.912;15.214;2024-02-26T04:20:15;31.40;22.40
34815;DHT22;21030;53.912;15.214;2024-02-26T04:22:45;31.40;22.40
34815;DHT22;21030;53.912;15.214;2024-02-26T04:25:13;31.30;22.60
34815;DHT22;21030;53.912;15.214;2024-02-26T04:27:43;31.20;22.60
34815;DHT22;21030;53.912;15.214;2024-02-26T04:30:12;31.20;22.60
34815;DHT22;21030;53.912;15.214;2024-02-26T04:32:41;30.70;23.00
34815;DHT22;21030;53.912;15.214;2024-02-26T04:35:10;30.20;23.60
34815;DHT22;21030;53.912;15.214;2024-02-26T04:37:39;30.30;23.50
34815;DHT22;21030;53.912;15.214;2024-02-26T04:40:08;30.30;23.60
34815;DHT22;21030;53.912;15.214;2024-02-26T04:42:37;30.50;23.40
34815;DHT22;21030;53.912;15.214;2024-02-26T04:45:05;30.70;23.10
34815;DHT22;21030;53.912;15.214;2024-02-26T04:47:35;30.90;23.00
34815;DHT22;21030;53.912;15.214;2024-02-26T04:50:04;30.80;23.10
34815;DHT22;21030;53.912;15.214;2024-02-26T04:52:33;30.80;23.20
34815;DHT22;21030;53.912;15.214;2024-02-26T04:55:02;30.80;23.10
34815;DHT22;21030;53.912;15.214;2024-02-26T04:57:31;31.00;22.80
34815;DHT22;21030;53.912;15.214;2024-02-26T05:00:00;31.30;22.70
34815;DHT22;21030;53.912;15.214;2024-02-26T05:02:28;31.40;22.60
34815;DHT22;21030;53.912;15.214;2024-02-26T05:04:57;31.40;22.50
34815;DHT22;21030;53.912;15.214;2024-02-26T05:07:24;31.50;22.50
34815;DHT22;21030;53.912;15.214;2024-02-26T05:09:51;31.30;22.50
34815;DHT22;21030;53.912;15.214;2024-02-26T05:12:18;31.40;22.60
34815;DHT22;21030;53.912;15.214;2024-02-26T05:14:45;31.30;22.60
34815;DHT22;21030;53.912;15.214;2024-02-26T05:17:12;31.40;22.50
34815;DHT22;21030;53.912;15.214;2024-02-26T05:19:39;31.20;22.50
34815;DHT22;21030;53.912;15.214;2024-02-26T05:22:06;31.30;22.40
34815;DHT22;21030;53.912;15.214;2024-02-26T05:24:33;31.40;22.40
34815;DHT22;21030;53.912;15.214;2024-02-26T05:27:00;31.40;22.40
34815;DHT22;21030;53.912;15.214;2024-02-26T05:29:27;31.40;22.30
34815;DHT22;21030;53.912;15.214;2024-02-26T05:31:54;31.40;22.20
34815;DHT22;21030;53.912;15.214;2024-02-26T05:34:21;31.30;22.30
34815;DHT22;21030;53.912;15.214;2024-02-26T05:36:49;31.30;22.40
34815;DHT22;21030;53.912;15.214;2024-02-26T05:39:16;31.20;22.50
34815;DHT22;21030;53.912;15.214;2024-02-26T05:41:46;31.30;22.40
34815;DHT22;21030;53.912;15.214;2024-02-26T05:44:13;31.20;22.30
34815;DHT22;21030;53.912;15.214;2024-02-26T05:46:41;31.30;22.30
34815;DHT22;21030;53.912;15.214;2024-02-26T05:49:09;31.30;22.30
34815;DHT22;21030;53.912;15.214;2024-02-26T05:51:36;31.30;22.30
34815;DHT22;21030;53.912;15.214;2024-02-26T05:54:03;31.30;22.20
34815;DHT22;21030;53.912;15.214;2024-02-26T05:56:30;31.40;22.10
34815;DHT22;21030;53.912;15.214;2024-02-26T05:58:57;31.40;22.00
34815;DHT22;21030;53.912;15.214;2024-02-26T06:01:24;31.40;22.10
34815;DHT22;21030;53.912;15.214;2024-02-26T06:03:52;31.40;22.10
34815;DHT22;21030;53.912;15.214;2024-02-26T06:06:19;31.40;21.90
34815;DHT22;21030;53.912;15.214;2024-02-26T06:08:49;31.50;21.80
34815;DHT22;21030;53.912;15.214;2024-02-26T06:11:16;31.50;21.80
34815;DHT22;21030;53.912;15.214;2024-02-26T06:13:43;31.60;21.70
34815;DHT22;21030;53.912;15.214;2024-02-26T06:16:10;31.70;21.70
34815;DHT22;21030;53.912;15.214;2024-02-26T06:18:37;31.70;21.40
34815;DHT22;21030;53.912;15.214;2024-02-26T06:21:04;31.80;21.60
34815;DHT22;21030;53.912;15.214;2024-02-26T06:23:31;31.90;21.70
34815;DHT22;21030;53.912;15.214;2024-02-26T06:25:58;31.80;21.60
34815;DHT22;21030;53.912;15.214;2024-02-26T06:28:25;31.80;21.70
34815;DHT22;21030;53.912;15.214;2024-02-26T06:30:52;31.60;22.00
34815;DHT22;21030;53.912;15.214;2024-02-26T06:33:19;31.70;21.90
34815;DHT22;21030;53.912;15.214;2024-02-26T06:35:47;32.00;21.80
34815;DHT22;21030;53.912;15.214;2024-02-26T06:38:14;32.20;21.60
34815;DHT22;21030;53.912;15.214;2024-02-26T06:40:42;32.70;21.70
34815;DHT22;21030;53.912;15.214;2024-02-26T06:43:09;32.80;21.10
34815;DHT22;21030;53.912;15.214;2024-02-26T06:45:36;33.10;20.90
34815;DHT22;21030;53.912;15.214;2024-02-26T06:48:03;33.20;20.60
34815;DHT22;21030;53.912;15.214;2024-02-26T06:50:30;33.40;20.70
34815;DHT22;21030;53.912;15.214;2024-02-26T06:52:57;33.40;20.80
34815;DHT22;21030;53.912;15.214;2024-02-26T06:55:24;33.40;20.80
34815;DHT22;21030;53.912;15.214;2024-02-26T06:57:51;33.50;20.60
34815;DHT22;21030;53.912;15.214;2024-02-26T07:00:18;33.50;21.20
34815;DHT22;21030;53.912;15.214;2024-02-26T07:02:45;33.60;21.00
34815;DHT22;21030;53.912;15.214;2024-02-26T07:05:12;34.20;20.80
34815;DHT22;21030;53.912;15.214;2024-02-26T07:07:39;34.30;20.70
34815;DHT22;21030;53.912;15.214;2024-02-26T07:10:07;34.70;20.60
34815;DHT22;21030;53.912;15.214;2024-02-26T07:12:34;35.00;20.50
34815;DHT22;21030;53.912;15.214;2024-02-26T07:15:01;35.20;20.60
34815;DHT22;21030;53.912;15.214;2024-02-26T07:17:29;35.50;20.20
34815;DHT22;21030;53.912;15.214;2024-02-26T07:19:56;35.60;20.20
34815;DHT22;21030;53.912;15.214;2024-02-26T07:22:23;35.90;20.10
34815;DHT22;21030;53.912;15.214;2024-02-26T07:24:51;36.30;19.70
34815;DHT22;21030;53.912;15.214;2024-02-26T07:27:18;36.40;19.40
34815;DHT22;21030;53.912;15.214;2024-02-26T07:29:45;36.50;19.40
34815;DHT22;21030;53.912;15.214;2024-02-26T07:32:13;36.60;19.20
34815;DHT22;21030;53.912;15.214;2024-02-26T07:34:41;36.80;19.20
34815;DHT22;21030;53.912;15.214;2024-02-26T07:37:12;37.00;19.70
34815;DHT22;21030;53.912;15.214;2024-02-26T07:39:39;37.10;19.10
34815;DHT22;21030;53.912;15.214;2024-02-26T07:42:06;37.60;19.00
34815;DHT22;21030;53.912;15.214;2024-02-26T07:44:33;37.80;18.80
34815;DHT22;21030;53.912;15.214;2024-02-26T07:47:00;38.10;18.70
34815;DHT22;21030;53.912;15.214;2024-02-26T07:49:27;38.50;18.60
34815;DHT22;21030;53.912;15.214;2024-02-26T07:51:55;38.70;18.50
34815;DHT22;21030;53.912;15.214;2024-02-26T07:54:24;38.90;18.50
34815;DHT22;21030;53.912;15.214;2024-02-26T07:56:52;39.20;18.40
34815;DHT22;21030;53.912;15.214;2024-02-26T07:59:19;39.60;18.30
34815;DHT22;21030;53.912;15.214;2024-02-26T08:01:52;39.90;17.90
34815;DHT22;21030;53.912;15.214;2024-02-26T08:04:24;40.10;17.80
34815;DHT22;21030;53.912;15.214;2024-02-26T08:06:53;40.30;17.70
34815;DHT22;21030;53.912;15.214;2024-02-26T08:09:21;40.00;17.70
34815;DHT22;21030;53.912;15.214;2024-02-26T08:11:48;40.20;17.70
34815;DHT22;21030;53.912;15.214;2024-02-26T08:14:15;40.20;17.60
34815;DHT22;21030;53.912;15.214;2024-02-26T08:16:42;40.10;17.70
34815;DHT22;21030;53.912;15.214;2024-02-26T08:19:09;39.20;17.80
34815;DHT22;21030;53.912;15.214;2024-02-26T08:21:38;39.30;18.20
34815;DHT22;21030;53.912;15.214;2024-02-26T08:24:05;39.30;18.80
34815;DHT22;21030;53.912;15.214;2024-02-26T08:26:32;39.30;19.50
34815;DHT22;21030;53.912;15.214;2024-02-26T08:28:59;38.50;18.60
34815;DHT22;21030;53.912;15.214;2024-02-26T08:31:27;38.50;18.40
34815;DHT22;21030;53.912;15.214;2024-02-26T08:33:54;38.20;18.80
34815;DHT22;21030;53.912;15.214;2024-02-26T08:36:22;37.60;18.90
34815;DHT22;21030;53.912;15.214;2024-02-26T08:38:49;37.80;19.60
34815;DHT22;21030;53.912;15.214;2024-02-26T08:41:16;38.30;19.60
34815;DHT22;21030;53.912;15.214;2024-02-26T08:43:43;38.90;19.00
34815;DHT22;21030;53.912;15.214;2024-02-26T08:46:12;39.90;18.50
34815;DHT22;21030;53.912;15.214;2024-02-26T08:48:39;40.30;18.10
34815;DHT22;21030;53.912;15.214;2024-02-26T08:51:07;40.70;17.80
34815;DHT22;21030;53.912;15.214;2024-02-26T08:53:38;41.10;17.80
34815;DHT22;21030;53.912;15.214;2024-02-26T08:56:10;41.30;17.80
34815;DHT22;21030;53.912;15.214;2024-02-26T08:58:45;41.40;18.00
34815;DHT22;21030;53.912;15.214;2024-02-26T09:01:13;41.80;17.70
34815;DHT22;21030;53.912;15.214;2024-02-26T09:03:40;42.20;17.50
34815;DHT22;21030;53.912;15.214;2024-02-26T09:06:07;42.70;17.50
34815;DHT22;21030;53.912;15.214;2024-02-26T09:08:34;43.20;17.20
34815;DHT22;21030;53.912;15.214;2024-02-26T09:11:04;43.50;17.00
34815;DHT22;21030;53.912;15.214;2024-02-26T09:13:31;43.70;16.60
34815;DHT22;21030;53.912;15.214;2024-02-26T09:15:58;43.90;16.70
34815;DHT22;21030;53.912;15.214;2024-02-26T09:18:26;44.20;16.60
34815;DHT22;21030;53.912;15.214;2024-02-26T09:20:53;44.40;16.70
34815;DHT22;21030;53.912;15.214;2024-02-26T09:23:20;44.50;16.60
34815;DHT22;21030;53.912;15.214;2024-02-26T09:25:47;44.80;16.50
34815;DHT22;21030;53.912;15.214;2024-02-26T09:28:14;45.10;16.30
34815;DHT22;21030;53.912;15.214;2024-02-26T09:30:44;45.40;16.60
34815;DHT22;21030;53.912;15.214;2024-02-26T09:33:13;45.40;16.20
34815;DHT22;21030;53.912;15.214;2024-02-26T09:35:40;45.50;16.10
34815;DHT22;21030;53.912;15.214;2024-02-26T09:38:08;45.80;16.20
34815;DHT22;21030;53.912;15.214;2024-02-26T09:40:35;45.90;16.20
34815;DHT22;21030;53.912;15.214;2024-02-26T09:43:05;46.00;15.90
34815;DHT22;21030;53.912;15.214;2024-02-26T09:45:33;46.10;15.90
34815;DHT22;21030;53.912;15.214;2024-02-26T09:48:02;46.10;15.70
34815;DHT22;21030;53.912;15.214;2024-02-26T09:50:31;46.20;15.80
34815;DHT22;21030;53.912;15.214;2024-02-26T09:52:59;46.20;15.80
34815;DHT22;21030;53.912;15.214;2024-02-26T09:55:29;46.40;15.90
34815;DHT22;21030;53.912;15.214;2024-02-26T09:57:57;46.20;15.40
34815;DHT22;21030;53.912;15.214;2024-02-26T10:00:27;46.20;15.60
34815;DHT22;21030;53.912;15.214;2024-02-26T10:05:32;46.60;15.20
34815;DHT22;21030;53.912;15.214;2024-02-26T10:08:01;46.60;15.70
34815;DHT22;21030;53.912;15.214;2024-02-26T10:10:29;46.50;15.60
34815;DHT22;21030;53.912;15.214;2024-02-26T10:12:56;46.50;15.70
34815;DHT22;21030;53.912;15.214;2024-02-26T10:15:23;46.30;15.40
34815;DHT22;21030;53.912;15.214;2024-02-26T10:17:50;46.30;15.40
34815;DHT22;21030;53.912;15.214;2024-02-26T10:20:18;46.20;15.50
34815;DHT22;21030;53.912;15.214;2024-02-26T10:22:48;46.10;15.70
34815;DHT22;21030;53.912;15.214;2024-02-26T10:25:15;46.00;15.90
34815;DHT22;21030;53.912;15.214;2024-02-26T10:27:42;45.90;15.80
34815;DHT22;21030;53.912;15.214;2024-02-26T10:32:46;45.60;15.50
34815;DHT22;21030;53.912;15.214;2024-02-26T10:35:16;45.60;15.80
34815;DHT22;21030;53.912;15.214;2024-02-26T10:37:46;45.60;15.80
34815;DHT22;21030;53.912;15.214;2024-02-26T10:40:14;45.30;16.00
34815;DHT22;21030;53.912;15.214;2024-02-26T10:42:42;44.90;15.60
34815;DHT22;21030;53.912;15.214;2024-02-26T10:45:10;44.70;15.80
34815;DHT22;21030;53.912;15.214;2024-02-26T10:47:37;44.40;16.00
34815;DHT22;21030;53.912;15.214;2024-02-26T10:50:06;44.10;16.20
34815;DHT22;21030;53.912;15.214;2024-02-26T10:52:35;43.90;16.30
34815;DHT22;21030;53.912;15.214;2024-02-26T10:55:04;43.70;16.50
34815;DHT22;21030;53.912;15.214;2024-02-26T10:57:35;43.50;16.60
34815;DHT22;21030;53.912;15.214;2024-02-26T11:00:07;43.20;16.80
34815;DHT22;21030;53.912;15.214;2024-02-26T11:02:38;42.70;17.20
34815;DHT22;21030;53.912;15.214;2024-02-26T11:05:07;42.30;17.20
34815;DHT22;21030;53.912;15.214;2024-02-26T11:07:35;41.80;17.50
34815;DHT22;21030;53.912;15.214;2024-02-26T11:10:04;41.50;17.40
34815;DHT22;21030;53.912;15.214;2024-02-26T11:12:33;41.30;17.60
34815;DHT22;21030;53.912;15.214;2024-02-26T11:15:05;41.10;17.90
34815;DHT22;21030;53.912;15.214;2024-02-26T11:17:33;40.80;18.00
34815;DHT22;21030;53.912;15.214;2024-02-26T11:20:01;40.80;18.00
34815;DHT22;21030;53.912;15.214;2024-02-26T11:22:29;41.00;18.10
34815;DHT22;21030;53.912;15.214;2024-02-26T11:24:57;41.10;18.20
34815;DHT22;21030;53.912;15.214;2024-02-26T11:27:33;41.10;18.00
34815;DHT22;21030;53.912;15.214;2024-02-26T11:30:02;41.20;17.90
34815;DHT22;21030;53.912;15.214;2024-02-26T11:32:33;41.50;17.70
34815;DHT22;21030;53.912;15.214;2024-02-26T11:35:04;41.80;17.70
34815;DHT22;21030;53.912;15.214;2024-02-26T11:37:32;42.10;17.50
34815;DHT22;21030;53.912;15.214;2024-02-26T11:40:04;42.30;17.50
34815;DHT22;21030;53.912;15.214;2024-02-26T11:42:31;42.30;17.00
34815;DHT22;21030;53.912;15.214;2024-02-26T11:44:59;42.40;17.30
34815;DHT22;21030;53.912;15.214;2024-02-26T11:47:28;42.70;17.20
34815;DHT22;21030;53.912;15.214;2024-02-26T11:49:55;42.70;17.20
34815;DHT22;21030;53.912;15.214;2024-02-26T11:52:22;42.90;17.00
34815;DHT22;21030;53.912;15.214;2024-02-26T11:54:53;43.20;17.00
34815;DHT22;21030;53.912;15.214;2024-02-26T11:57:31;43.60;17.00
34815;DHT22;21030;53.912;15.214;2024-02-26T12:05:18;43.70;16.90
34815;DHT22;21030;53.912;15.214;2024-02-26T12:07:48;43.40;17.10
34815;DHT22;21030;53.912;15.214;2024-02-26T12:12:58;43.40;16.70
34815;DHT22;21030;53.912;15.214;2024-02-26T12:15:31;43.40;16.30
34815;DHT22;21030;53.912;15.214;2024-02-26T12:18:01;43.50;16.40
34815;DHT22;21030;53.912;15.214;2024-02-26T12:20:29;43.90;16.40
34815;DHT22;21030;53.912;15.214;2024-02-26T12:22:57;43.60;16.20
34815;DHT22;21030;53.912;15.214;2024-02-26T12:25:26;43.90;16.60
34815;DHT22;21030;53.912;15.214;2024-02-26T12:27:54;43.70;16.50
34815;DHT22;21030;53.912;15.214;2024-02-26T12:30:21;43.80;16.60
34815;DHT22;21030;53.912;15.214;2024-02-26T12:32:50;43.90;16.60
34815;DHT22;21030;53.912;15.214;2024-02-26T12:35:18;43.60;16.50
34815;DHT22;21030;53.912;15.214;2024-02-26T12:37:46;43.30;16.70
34815;DHT22;21030;53.912;15.214;2024-02-26T12:40:13;42.80;16.80
34815;DHT22;21030;53.912;15.214;2024-02-26T12:42:41;42.70;17.00
34815;DHT22;21030;53.912;15.214;2024-02-26T12:45:10;42.60;17.10
34815;DHT22;21030;53.912;15.214;2024-02-26T12:47:42;42.70;17.10
34815;DHT22;21030;53.912;15.214;2024-02-26T12:50:10;42.70;17.10
34815;DHT22;21030;53.912;15.214;2024-02-26T12:52:45;42.50;17.30
34815;DHT22;21030;53.912;15.214;2024-02-26T12:55:18;42.30;17.20
34815;DHT22;21030;53.912;15.214;2024-02-26T12:57:47;42.00;17.40
34815;DHT22;21030;53.912;15.214;2024-02-26T13:00:25;41.70;17.60
34815;DHT22;21030;53.912;15.214;2024-02-26T13:02:53;41.50;17.60
34815;DHT22;21030;53.912;15.214;2024-02-26T13:05:23;41.40;17.90
34815;DHT22;21030;53.912;15.214;2024-02-26T13:07:50;41.30;17.90
34815;DHT22;21030;53.912;15.214;2024-02-26T13:10:19;41.00;18.10
34815;DHT22;21030;53.912;15.214;2024-02-26T13:12:48;40.70;18.20
34815;DHT22;21030;53.912;15.214;2024-02-26T13:15:20;40.60;18.10
34815;DHT22;21030;53.912;15.214;2024-02-26T13:17:49;40.20;18.30
34815;DHT22;21030;53.912;15.214;2024-02-26T13:20:28;40.40;18.40
34815;DHT22;21030;53.912;15.214;2024-02-26T13:23:07;40.40;18.60
34815;DHT22;21030;53.912;15.214;2024-02-26T13:25:35;40.10;18.60
34815;DHT22;21030;53.912;15.214;2024-02-26T13:28:18;40.00;18.70
34815;DHT22;21030;53.912;15.214;2024-02-26T13:30:56;40.10;18.80
34815;DHT22;21030;53.912;15.214;2024-02-26T13:33:25;39.60;18.80
34815;DHT22;21030;53.912;15.214;2024-02-26T13:35:53;39.40;18.80
34815;DHT22;21030;53.912;15.214;2024-02-26T13:38:20;39.10;18.90
34815;DHT22;21030;53.912;15.214;2024-02-26T13:40:47;39.20;19.10
34815;DHT22;21030;53.912;15.214;2024-02-26T13:43:14;39.10;19.30
34815;DHT22;21030;53.912;15.214;2024-02-26T13:45:41;39.30;19.10
34815;DHT22;21030;53.912;15.214;2024-02-26T13:48:09;39.20;19.20
34815;DHT22;21030;53.912;15.214;2024-02-26T13:50:41;38.90;19.10
34815;DHT22;21030;53.912;15.214;2024-02-26T13:53:10;39.00;19.10
34815;DHT22;21030;53.912;15.214;2024-02-26T13:55:38;39.20;19.00
34815;DHT22;21030;53.912;15.214;2024-02-26T13:58:06;39.00;19.00
34815;DHT22;21030;53.912;15.214;2024-02-26T14:00:33;38.80;19.10
34815;DHT22;21030;53.912;15.214;2024-02-26T14:03:02;38.60;19.30
34815;DHT22;21030;53.912;15.214;2024-02-26T14:05:30;38.50;19.30
34815;DHT22;21030;53.912;15.214;2024-02-26T14:07:57;38.20;19.50
34815;DHT22;21030;53.912;15.214;2024-02-26T14:10:24;38.00;19.90
34815;DHT22;21030;53.912;15.214;2024-02-26T14:12:51;38.10;19.80
34815;DHT22;21030;53.912;15.214;2024-02-26T14:15:18;38.00;19.60
34815;DHT22;21030;53.912;15.214;2024-02-26T14:17:45;38.20;19.70
34815;DHT22;21030;53.912;15.214;2024-02-26T14:20:20;38.00;19.60
34815;DHT22;21030;53.912;15.214;2024-02-26T14:22:48;38.20;19.50
34815;DHT22;21030;53.912;15.214;2024-02-26T14:25:15;38.00;19.70
34815;DHT22;21030;53.912;15.214;2024-02-26T14:27:42;37.60;19.80
34815;DHT22;21030;53.912;15.214;2024-02-26T14:30:10;37.00;20.00
34815;DHT22;21030;53.912;15.214;2024-02-26T14:32:37;36.50;20.60
34815;DHT22;21030;53.912;15.214;2024-02-26T14:35:08;36.60;20.70
34815;DHT22;21030;53.912;15.214;2024-02-26T14:37:42;36.50;20.10
34815;DHT22;21030;53.912;15.214;2024-02-26T14:40:14;36.10;20.10
34815;DHT22;21030;53.912;15.214;2024-02-26T14:42:41;35.70;20.40
34815;DHT22;21030;53.912;15.214;2024-02-26T14:45:08;35.30;20.60
34815;DHT22;21030;53.912;15.214;2024-02-26T14:47:36;34.90;20.90
34815;DHT22;21030;53.912;15.214;2024-02-26T14:50:05;34.50;21.20
34815;DHT22;21030;53.912;15.214;2024-02-26T14:52:33;34.20;21.50
34815;DHT22;21030;53.912;15.214;2024-02-26T14:55:00;34.30;21.60
34815;DHT22;21030;53.912;15.214;2024-02-26T14:57:27;34.00;21.60
34815;DHT22;21030;53.912;15.214;2024-02-26T14:59:54;33.70;21.70
34815;DHT22;21030;53.912;15.214;2024-02-26T15:02:21;33.40;22.10
34815;DHT22;21030;53.912;15.214;2024-02-26T15:04:48;33.50;22.30
34815;DHT22;21030;53.912;15.214;2024-02-26T15:07:16;33.50;22.30
34815;DHT22;21030;53.912;15.214;2024-02-26T15:09:43;33.50;22.40
34815;DHT22;21030;53.912;15.214;2024-02-26T15:12:10;33.80;22.30
34815;DHT22;21030;53.912;15.214;2024-02-26T15:14:38;33.50;22.30
34815;DHT22;21030;53.912;15.214;2024-02-26T15:17:07;33.20;22.50
34815;DHT22;21030;53.912;15.214;2024-02-26T15:19:37;33.30;22.50
34815;DHT22;21030;53.912;15.214;2024-02-26T15:22:05;33.30;22.40
34815;DHT22;21030;53.912;15.214;2024-02-26T15:24:32;33.10;22.50
34815;DHT22;21030;53.912;15.214;2024-02-26T15:26:59;33.30;22.50
34815;DHT22;21030;53.912;15.214;2024-02-26T15:29:26;33.30;22.40
34815;DHT22;21030;53.912;15.214;2024-02-26T15:31:53;33.30;22.30
34815;DHT22;21030;53.912;15.214;2024-02-26T15:34:21;33.30;22.40